National Geographic Sea Lion — WUR9646 — position and weather

sailwx.info

Track history (hours):
 
Tides and Currents Weather Stations Pressure Air Temp Water Temp Dewpoint Dewpoint Depression Visibility Wind Speed Wind Dir Waves Ship Positions

National Geographic Sea Lion

Owner: Lindblad Expeditions, Inc., SEATTLE, WA. More information available from US FCC via Universal Licensing System and Coast Guard Vessel Documentation Center.

Last reported at 2018-Jun-21 08:11 UTC. Time now 2018-Jun-21 16:27 UTC.
Position N 58°11' W 135°23'.

Length 45 m; draft 2.4 m.

Type: Passenger vessel. MMSI: 366396000.

Date/timePositionNaut miles runAvg speedWind from/ knotsBaromVisibWave heightAir tempDewpointWater temp
2018-Jun-21 08:11N 58°11' W 135°23'1 7.5
2018-Jun-21 08:00N 58°12' W 135°25'4 7.2
2018-Jun-21 07:30N 58°13' W 135°31'4 8.0
2018-Jun-21 07:00N 58°15' W 135°38'4 7.7
2018-Jun-21 06:30N 58°17' W 135°44'3 7.1
2018-Jun-21 06:01N 58°18' W 135°50'4 7.1
2018-Jun-21 05:30N 58°18' W 135°57'4 7.7
2018-Jun-21 04:59N 58°15' W 136°02'3 6.9
2018-Jun-21 04:30N 58°14' W 136°08'4 7.4
2018-Jun-21 04:00N 58°14' W 136°15'2 4.6
2018-Jun-21 03:29N 58°14' W 136°20'0 0.0
2018-Jun-21 03:00N 58°14' W 136°20'1 0.0
2018-Jun-20 08:42N 58°14' W 136°20'2 9.5
2018-Jun-20 08:30N 58°14' W 136°17'611.3
2018-Jun-20 08:00N 58°15' W 136°06'610.9
2018-Jun-20 07:30N 58°18' W 135°57'5 9.3
2018-Jun-20 07:00N 58°22' W 135°58'5 9.4
2018-Jun-20 06:30N 58°27' W 135°55'1 2.2
2018-Jun-20 05:59N 58°27' W 135°53'0 0.0
2018-Jun-20 05:29N 58°27' W 135°53'0 0.0
2018-Jun-20 04:59N 58°27' W 135°53'0 0.5
2018-Jun-20 04:30N 58°27' W 135°54'4 7.5
2018-Jun-20 04:00N 58°27' W 136°01'510.6
2018-Jun-20 03:30N 58°32' W 136°05'611.2
2018-Jun-20 03:00N 58°37' W 136°11'510.9
2018-Jun-20 02:30N 58°41' W 136°18'611.1
2018-Jun-20 01:59N 58°45' W 136°24'3 0.4
2018-Jun-19 17:48N 58°46' W 136°19'3 9.5
2018-Jun-19 17:29N 58°45' W 136°15'4 9.2
2018-Jun-19 17:00N 58°41' W 136°09'4 7.2
2018-Jun-19 16:26N 58°39' W 136°03'1 1.5
2018-Jun-19 16:00N 58°38' W 136°02'4 8.1
2018-Jun-19 15:30N 58°34' W 136°03'4 7.1
2018-Jun-19 15:00N 58°31' W 136°04'510.6
2018-Jun-19 14:30N 58°26' W 135°58'3 5.8
2018-Jun-19 14:00N 58°27' W 135°53'0 0.0
2018-Jun-19 13:30N 58°27' W 135°53'3 5.5
2018-Jun-19 13:00N 58°25' W 135°57'4 7.1
2018-Jun-19 12:30N 58°22' W 135°58'4 7.2
2018-Jun-19 12:00N 58°19' W 135°54'4 7.1
2018-Jun-19 11:30N 58°18' W 135°47'3 6.6
2018-Jun-19 11:00N 58°16' W 135°42'3 6.8
2018-Jun-19 10:30N 58°15' W 135°36'5 7.0
2018-Jun-19 09:52N 58°13' W 135°28'  
2018-Jun-17 02:59N 58°12' W 135°27'5 9.8
2018-Jun-17 02:29N 58°15' W 135°35'5 9.8
2018-Jun-17 02:00N 58°17' W 135°43'4 8.7
2018-Jun-17 01:30N 58°19' W 135°50'4 8.9
2018-Jun-17 01:00N 58°21' W 135°57'5 9.6
2018-Jun-17 00:31N 58°26' W 135°56'2 3.6
2018-Jun-17 00:01N 58°27' W 135°54'4 7.0
2018-Jun-16 23:30N 58°27' W 136°01'3 6.3
2018-Jun-16 23:00N 58°30' W 136°03'3 6.0
2018-Jun-16 22:30N 58°33' W 136°03'510.3
2018-Jun-16 22:01N 58°38' W 136°03'2 4.7
2018-Jun-16 21:30N 58°40' W 136°05'510.8
2018-Jun-16 21:00N 58°43' W 136°14'510.3
2018-Jun-16 20:30N 58°47' W 136°21'3 0.3
2018-Jun-16 10:45N 58°48' W 136°25'310.7
2018-Jun-16 10:30N 58°46' W 136°21'510.6
2018-Jun-16 10:00N 58°43' W 136°13'510.5
2018-Jun-16 09:30N 58°39' W 136°07'510.2
2018-Jun-16 09:01N 58°34' W 136°04'713.3
2018-Jun-16 08:31N 58°27' W 136°02'713.1
2018-Jun-16 08:01N 58°21' W 135°57'3 6.2
2018-Jun-16 07:31N 58°18' W 135°55'2 4.6
2018-Jun-16 07:01N 58°20' W 135°51'3 6.5
2018-Jun-16 06:31N 58°22' W 135°46'2 3.7
2018-Jun-16 06:00N 58°23' W 135°44'3 6.4
2018-Jun-16 05:30N 58°20' W 135°44'5 9.3
2018-Jun-16 05:00N 58°18' W 135°37'510.0
2018-Jun-16 04:30N 58°18' W 135°27'4 8.3
2018-Jun-16 04:00N 58°22' W 135°30'5 9.9
2018-Jun-16 03:31N 58°23' W 135°39'3 5.0
2018-Jun-16 03:00N 58°23' W 135°44'2 4.2
2018-Jun-16 02:30N 58°22' W 135°47'510.1
2018-Jun-16 02:01N 58°19' W 135°55'4 8.6
2018-Jun-16 01:30N 58°16' W 136°01'4 8.4
2018-Jun-16 01:00N 58°15' W 136°09'5 9.5
2018-Jun-16 00:29N 58°14' W 136°18'1 1.3
2018-Jun-15 23:32N 58°14' W 136°20'0 0.1
2018-Jun-15 19:59N 58°14' W 136°20'0 0.0
2018-Jun-15 10:00N 58°14' W 136°20'510.6
2018-Jun-15 09:30N 58°14' W 136°10'5 9.4
2018-Jun-15 09:00N 58°15' W 136°01'5 9.3
2018-Jun-15 08:30N 58°17' W 135°53'4 8.4
2018-Jun-15 08:00N 58°17' W 135°45'510.2
2018-Jun-15 07:29N 58°15' W 135°36'510.9
2018-Jun-15 07:00N 58°12' W 135°27'  
Track history (hours):
 
Tides and Currents Weather Stations Pressure Air Temp Water Temp Dewpoint Dewpoint Depression Visibility Wind Speed Wind Dir Waves Ship Positions

National Geographic Sea Lion

Owner: Lindblad Expeditions, Inc., SEATTLE, WA. More information available from US FCC via Universal Licensing System and Coast Guard Vessel Documentation Center.

Last reported at 2018-Jun-21 08:11 UTC. Time now 2018-Jun-21 16:27 UTC.
Position N 58°11' W 135°23'.

Length 45 m; draft 2.4 m.

Type: Passenger vessel. MMSI: 366396000.

Date/timePositionNaut miles runAvg speedWind from/ knotsBaromVisibWave heightAir tempDewpointWater temp
2018-Jun-21 08:11N 58°11' W 135°23'1 7.5
2018-Jun-21 08:00N 58°12' W 135°25'4 7.2
2018-Jun-21 07:30N 58°13' W 135°31'4 8.0
2018-Jun-21 07:00N 58°15' W 135°38'4 7.7
2018-Jun-21 06:30N 58°17' W 135°44'3 7.1
2018-Jun-21 06:01N 58°18' W 135°50'4 7.1
2018-Jun-21 05:30N 58°18' W 135°57'4 7.7
2018-Jun-21 04:59N 58°15' W 136°02'3 6.9
2018-Jun-21 04:30N 58°14' W 136°08'4 7.4
2018-Jun-21 04:00N 58°14' W 136°15'2 4.6
2018-Jun-21 03:29N 58°14' W 136°20'0 0.0
2018-Jun-21 03:00N 58°14' W 136°20'1 0.0
2018-Jun-20 08:42N 58°14' W 136°20'2 9.5
2018-Jun-20 08:30N 58°14' W 136°17'611.3
2018-Jun-20 08:00N 58°15' W 136°06'610.9
2018-Jun-20 07:30N 58°18' W 135°57'5 9.3
2018-Jun-20 07:00N 58°22' W 135°58'5 9.4
2018-Jun-20 06:30N 58°27' W 135°55'1 2.2
2018-Jun-20 05:59N 58°27' W 135°53'0 0.0
2018-Jun-20 05:29N 58°27' W 135°53'0 0.0
2018-Jun-20 04:59N 58°27' W 135°53'0 0.5
2018-Jun-20 04:30N 58°27' W 135°54'4 7.5
2018-Jun-20 04:00N 58°27' W 136°01'510.6
2018-Jun-20 03:30N 58°32' W 136°05'611.2
2018-Jun-20 03:00N 58°37' W 136°11'510.9
2018-Jun-20 02:30N 58°41' W 136°18'611.1
2018-Jun-20 01:59N 58°45' W 136°24'3 0.4
2018-Jun-19 17:48N 58°46' W 136°19'3 9.5
2018-Jun-19 17:29N 58°45' W 136°15'4 9.2
2018-Jun-19 17:00N 58°41' W 136°09'4 7.2
2018-Jun-19 16:26N 58°39' W 136°03'1 1.5
2018-Jun-19 16:00N 58°38' W 136°02'4 8.1
2018-Jun-19 15:30N 58°34' W 136°03'4 7.1
2018-Jun-19 15:00N 58°31' W 136°04'510.6
2018-Jun-19 14:30N 58°26' W 135°58'3 5.8
2018-Jun-19 14:00N 58°27' W 135°53'0 0.0
2018-Jun-19 13:30N 58°27' W 135°53'3 5.5
2018-Jun-19 13:00N 58°25' W 135°57'4 7.1
2018-Jun-19 12:30N 58°22' W 135°58'4 7.2
2018-Jun-19 12:00N 58°19' W 135°54'4 7.1
2018-Jun-19 11:30N 58°18' W 135°47'3 6.6
2018-Jun-19 11:00N 58°16' W 135°42'3 6.8
2018-Jun-19 10:30N 58°15' W 135°36'5 7.0
2018-Jun-19 09:52N 58°13' W 135°28'  
2018-Jun-17 02:59N 58°12' W 135°27'5 9.8
2018-Jun-17 02:29N 58°15' W 135°35'5 9.8
2018-Jun-17 02:00N 58°17' W 135°43'4 8.7
2018-Jun-17 01:30N 58°19' W 135°50'4 8.9
2018-Jun-17 01:00N 58°21' W 135°57'5 9.6
2018-Jun-17 00:31N 58°26' W 135°56'2 3.6
2018-Jun-17 00:01N 58°27' W 135°54'4 7.0
2018-Jun-16 23:30N 58°27' W 136°01'3 6.3
2018-Jun-16 23:00N 58°30' W 136°03'3 6.0
2018-Jun-16 22:30N 58°33' W 136°03'510.3
2018-Jun-16 22:01N 58°38' W 136°03'2 4.7
2018-Jun-16 21:30N 58°40' W 136°05'510.8
2018-Jun-16 21:00N 58°43' W 136°14'510.3
2018-Jun-16 20:30N 58°47' W 136°21'3 0.3
2018-Jun-16 10:45N 58°48' W 136°25'310.7
2018-Jun-16 10:30N 58°46' W 136°21'510.6
2018-Jun-16 10:00N 58°43' W 136°13'510.5
2018-Jun-16 09:30N 58°39' W 136°07'510.2
2018-Jun-16 09:01N 58°34' W 136°04'713.3
2018-Jun-16 08:31N 58°27' W 136°02'713.1
2018-Jun-16 08:01N 58°21' W 135°57'3 6.2
2018-Jun-16 07:31N 58°18' W 135°55'2 4.6
2018-Jun-16 07:01N 58°20' W 135°51'3 6.5
2018-Jun-16 06:31N 58°22' W 135°46'2 3.7
2018-Jun-16 06:00N 58°23' W 135°44'3 6.4
2018-Jun-16 05:30N 58°20' W 135°44'5 9.3
2018-Jun-16 05:00N 58°18' W 135°37'510.0
2018-Jun-16 04:30N 58°18' W 135°27'4 8.3
2018-Jun-16 04:00N 58°22' W 135°30'5 9.9
2018-Jun-16 03:31N 58°23' W 135°39'3 5.0
2018-Jun-16 03:00N 58°23' W 135°44'2 4.2
2018-Jun-16 02:30N 58°22' W 135°47'510.1
2018-Jun-16 02:01N 58°19' W 135°55'4 8.6
2018-Jun-16 01:30N 58°16' W 136°01'4 8.4
2018-Jun-16 01:00N 58°15' W 136°09'5 9.5
2018-Jun-16 00:29N 58°14' W 136°18'1 1.3
2018-Jun-15 23:32N 58°14' W 136°20'0 0.1
2018-Jun-15 19:59N 58°14' W 136°20'0 0.0
2018-Jun-15 10:00N 58°14' W 136°20'510.6
2018-Jun-15 09:30N 58°14' W 136°10'5 9.4
2018-Jun-15 09:00N 58°15' W 136°01'5 9.3
2018-Jun-15 08:30N 58°17' W 135°53'4 8.4
2018-Jun-15 08:00N 58°17' W 135°45'510.2
2018-Jun-15 07:29N 58°15' W 135°36'510.9
2018-Jun-15 07:00N 58°12' W 135°27'  

Dump ship's entire track history